Time;durP1;ratioP1;P1;durP2;ratioP2;P2;SDS_P1;SDS_P2;PMS_P1;PMS_P2;Temp;Humidity;BMP_temperature;BMP_pressure;BME280_temperature;BME280_humidity;BME280_pressure;Samples;Min_cycle;Max_cycle;Signal;HPM_P1;HPM_P2
2023/03/17 00:00:47;;;;;;;36.40;27.25;;;;;;;-142.70;100.00;60390.16;4926328;29;20443;-76
2023/03/17 00:03:17;;;;;;;36.67;29.17;;;;;;;-142.70;100.00;60390.16;4908252;29;20035;-76
2023/03/17 00:05:42;;;;;;;35.83;27.15;;;;;;;-142.70;100.00;60390.16;4909167;29;20023;-76
2023/03/17 00:08:28;;;;;;;44.60;30.45;;;;;;;-142.70;100.00;60390.16;4907964;29;20032;-76
2023/03/17 00:10:55;;;;;;;36.97;29.05;;;;;;;-142.70;100.00;60390.16;4908722;29;20143;-76
2023/03/17 00:13:22;;;;;;;46.40;32.42;;;;;;;-142.70;100.00;60390.16;4893739;29;20032;-76
2023/03/17 00:15:51;;;;;;;32.47;24.30;;;;;;;-142.70;100.00;60390.16;4907826;29;20042;-76
2023/03/17 00:18:17;;;;;;;34.95;27.65;;;;;;;-142.70;100.00;60390.16;4926484;29;20032;-76
2023/03/17 00:20:44;;;;;;;41.75;30.40;;;;;;;-142.70;100.00;60390.16;4891513;29;20382;-76
2023/03/17 00:23:20;;;;;;;42.92;30.88;;;;;;;-142.70;100.00;60390.16;4892946;29;20035;-77
2023/03/17 00:25:46;;;;;;;35.58;27.45;;;;;;;-142.70;100.00;60390.16;4908156;29;20039;-76
2023/03/17 00:28:24;;;;;;;43.05;29.00;;;;;;;-142.70;100.00;60390.16;4908440;29;20499;-76
2023/03/17 00:30:59;;;;;;;43.40;31.77;;;;;;;-142.70;100.00;60390.16;4926225;29;20458;-76
2023/03/17 00:33:27;;;;;;;48.05;31.55;;;;;;;-142.70;100.00;60390.16;4907326;29;20034;-77
2023/03/17 00:35:54;;;;;;;48.25;34.35;;;;;;;-142.70;100.00;60390.16;4892768;29;20100;-76
2023/03/17 00:38:20;;;;;;;41.92;29.27;;;;;;;-142.70;100.00;60390.16;4907399;29;20031;-76
2023/03/17 00:40:46;;;;;;;39.38;28.38;;;;;;;-142.70;100.00;60390.16;4908648;29;20071;-76
2023/03/17 00:43:13;;;;;;;42.00;29.65;;;;;;;-142.70;100.00;60390.16;4891839;29;20026;-76
2023/03/17 00:45:42;;;;;;;46.75;31.40;;;;;;;-142.70;100.00;60390.16;4908172;29;20529;-76
2023/03/17 00:48:16;;;;;;;59.30;35.63;;;;;;;-142.70;100.00;60390.16;4925392;29;20095;-76
2023/03/17 00:50:41;;;;;;;36.03;26.98;;;;;;;-142.70;100.00;60390.16;4906716;29;20079;-76
2023/03/17 00:53:12;;;;;;;44.15;30.27;;;;;;;-142.70;100.00;60390.16;4925536;29;20561;-76
2023/03/17 00:55:38;;;;;;;42.00;31.73;;;;;;;-142.70;100.00;60390.16;4890710;29;20481;-76
2023/03/17 00:58:23;;;;;;;45.97;31.58;;;;;;;-142.70;100.00;60390.16;4908820;29;20081;-76
2023/03/17 01:00:48;;;;;;;39.80;28.23;;;;;;;-142.70;100.00;60390.16;4891870;29;20044;-76
2023/03/17 01:03:14;;;;;;;46.95;31.73;;;;;;;-142.70;100.00;60390.16;4924632;29;20038;-76
2023/03/17 01:05:40;;;;;;;48.63;30.50;;;;;;;-142.70;100.00;60390.16;4907861;29;20024;-77
2023/03/17 01:08:06;;;;;;;48.60;32.63;;;;;;;-142.70;100.00;60390.16;4891066;29;20052;-76
2023/03/17 01:10:32;;;;;;;58.28;35.75;;;;;;;-142.70;100.00;60390.16;4908253;29;20028;-76
2023/03/17 01:12:58;;;;;;;53.00;33.28;;;;;;;-142.70;100.00;60390.16;4907171;29;20946;-76
2023/03/17 01:15:26;;;;;;;41.53;31.40;;;;;;;-142.70;100.00;60390.16;4907570;29;20482;-77
2023/03/17 01:17:51;;;;;;;50.28;32.47;;;;;;;-142.70;100.00;60390.16;4906902;29;20028;-76
2023/03/17 01:20:21;;;;;;;55.55;34.17;;;;;;;-142.70;100.00;60390.16;4924409;29;20051;-76
2023/03/17 01:22:47;;;;;;;31.88;26.10;;;;;;;-142.70;100.00;60390.16;4907647;29;20023;-77
2023/03/17 01:25:12;;;;;;;40.05;29.45;;;;;;;-142.70;100.00;60390.16;4906460;29;20208;-76
2023/03/17 01:27:40;;;;;;;63.05;36.83;;;;;;;-142.70;100.00;60390.16;4908075;29;20110;-76
2023/03/17 01:30:19;;;;;;;40.05;29.60;;;;;;;-142.70;100.00;60390.16;4890907;29;20046;-76
2023/03/17 01:32:45;;;;;;;34.00;25.40;;;;;;;-142.70;100.00;60390.16;4925012;29;20035;-76
2023/03/17 01:35:11;;;;;;;40.85;29.38;;;;;;;-142.70;100.00;60390.16;4906551;29;20059;-77
2023/03/17 01:37:37;;;;;;;26.48;21.15;;;;;;;-142.70;100.00;60390.16;4891603;29;20123;-77
2023/03/17 01:40:08;;;;;;;30.02;24.13;;;;;;;-142.70;100.00;60390.16;4907483;29;20166;-77
2023/03/17 01:42:34;;;;;;;28.02;23.42;;;;;;;-142.70;100.00;60390.16;4906574;29;20118;-77
2023/03/17 01:45:38;;;;;;;33.25;25.50;;;;;;;-142.70;100.00;60390.16;4891631;29;20476;-77
2023/03/17 01:48:04;;;;;;;29.10;22.30;;;;;;;-142.70;100.00;60390.16;4923558;29;20034;-77
2023/03/17 01:50:30;;;;;;;26.20;20.92;;;;;;;-142.70;100.00;60390.16;4905167;29;20392;-77
2023/03/17 01:52:56;;;;;;;26.30;22.75;;;;;;;-142.70;100.00;60390.16;4906778;29;20078;-77
2023/03/17 01:55:21;;;;;;;23.63;19.77;;;;;;;-142.70;100.00;60390.16;4923602;29;20114;-77
2023/03/17 01:57:52;;;;;;;24.35;20.23;;;;;;;-142.70;100.00;60390.16;4907490;29;20028;-77
2023/03/17 02:00:21;;;;;;;20.48;18.10;;;;;;;-142.70;100.00;60390.16;4906248;29;20035;-77
2023/03/17 02:02:48;;;;;;;26.70;20.67;;;;;;;-142.70;100.00;60390.16;4907409;29;20031;-77
2023/03/17 02:05:17;;;;;;;22.70;20.35;;;;;;;-142.70;100.00;60390.16;4906098;29;20106;-77
2023/03/17 02:07:44;;;;;;;27.70;20.23;;;;;;;-142.70;100.00;60390.16;4907226;29;20035;-77
2023/03/17 02:10:12;;;;;;;23.38;19.15;;;;;;;-142.70;100.00;60390.16;4906459;29;20035;-77
2023/03/17 02:12:39;;;;;;;27.20;21.83;;;;;;;-142.70;100.00;60390.16;4906544;29;20091;-77
2023/03/17 02:15:05;;;;;;;24.33;19.38;;;;;;;-142.70;100.00;60390.16;4891160;29;20044;-77
2023/03/17 02:17:30;;;;;;;26.50;20.25;;;;;;;-142.70;100.00;60390.16;4905799;29;20433;-77
2023/03/17 02:20:07;;;;;;;20.50;18.10;;;;;;;-142.70;100.00;60390.16;4906489;29;20419;-77
2023/03/17 02:22:33;;;;;;;24.38;18.15;;;;;;;-142.70;100.00;60390.16;4905549;29;20023;-77
2023/03/17 02:24:59;;;;;;;19.42;17.20;;;;;;;-142.70;100.00;60390.16;4907049;29;20031;-77
2023/03/17 02:27:40;;;;;;;20.80;16.05;;;;;;;-142.70;100.00;60390.16;4923172;29;20032;-77
2023/03/17 02:30:08;;;;;;;19.70;17.45;;;;;;;-142.70;100.00;60390.16;4906176;29;20519;-77
2023/03/17 02:32:35;;;;;;;21.05;18.50;;;;;;;-142.70;100.00;60390.16;4906518;29;20122;-77
2023/03/17 02:35:00;;;;;;;20.35;18.15;;;;;;;-142.70;100.00;60390.16;4922655;29;20146;-77
2023/03/17 02:37:26;;;;;;;20.92;17.40;;;;;;;-142.70;100.00;60390.16;4924347;29;20054;-77
2023/03/17 02:39:52;;;;;;;18.08;15.25;;;;;;;-142.70;100.00;60390.16;4921837;29;20027;-77
2023/03/17 02:42:18;;;;;;;23.20;19.23;;;;;;;-142.70;100.00;60390.16;4907265;29;20028;-77
2023/03/17 02:44:44;;;;;;;21.92;17.13;;;;;;;-142.70;100.00;60390.16;4905202;29;20019;-77
2023/03/17 02:47:10;;;;;;;19.80;15.98;;;;;;;-142.70;100.00;60390.16;4906680;29;20023;-77
2023/03/17 02:49:36;;;;;;;21.27;18.27;;;;;;;-142.70;100.00;60390.16;4905863;29;20028;-77
2023/03/17 02:52:02;;;;;;;20.55;16.88;;;;;;;-142.70;100.00;60390.16;4905732;29;20400;-77
2023/03/17 02:54:27;;;;;;;21.85;17.70;;;;;;;-142.70;100.00;60390.16;4907012;29;20024;-77
2023/03/17 02:56:53;;;;;;;21.00;18.25;;;;;;;-142.70;100.00;60390.16;4889383;29;20031;-77
2023/03/17 02:59:18;;;;;;;23.13;20.52;;;;;;;-142.70;100.00;60390.16;4923533;29;20063;-77
2023/03/17 03:01:44;;;;;;;20.73;16.92;;;;;;;-142.70;100.00;60390.16;4905080;29;20035;-78
2023/03/17 03:04:09;;;;;;;21.08;18.88;;;;;;;-142.70;100.00;60390.16;4890914;29;20028;-77
2023/03/17 03:06:35;;;;;;;16.42;14.68;;;;;;;-142.70;100.00;60390.16;4905382;29;20493;-77
2023/03/17 03:09:02;;;;;;;22.33;17.38;;;;;;;-142.70;100.00;60390.16;4890758;29;20481;-78
2023/03/17 03:11:28;;;;;;;20.67;18.23;;;;;;;-142.70;100.00;60390.16;4890821;29;20024;-78
2023/03/17 03:13:53;;;;;;;23.00;20.40;;;;;;;-142.70;100.00;60390.16;4922307;29;20015;-78
2023/03/17 03:16:19;;;;;;;23.75;19.17;;;;;;;-142.70;100.00;60390.16;4906758;29;20027;-77
2023/03/17 03:18:44;;;;;;;17.20;15.38;;;;;;;-142.70;100.00;60390.16;4905334;29;20312;-78
2023/03/17 03:21:10;;;;;;;16.10;14.27;;;;;;;-142.70;100.00;60390.16;4906714;29;20034;-78
2023/03/17 03:23:35;;;;;;;16.85;14.75;;;;;;;-142.70;100.00;60390.16;4889620;29;20130;-78
2023/03/17 03:26:01;;;;;;;31.30;19.30;;;;;;;-142.70;100.00;60390.16;4906136;29;20054;-79
2023/03/17 03:28:26;;;;;;;34.28;21.77;;;;;;;-142.70;100.00;60390.16;4905758;29;20035;-78
2023/03/17 03:30:52;;;;;;;20.52;16.17;;;;;;;-142.70;100.00;60390.16;4905799;29;20627;-78
2023/03/17 03:33:17;;;;;;;28.00;18.73;;;;;;;-142.70;100.00;60390.16;4922727;29;20063;-78
2023/03/17 03:35:43;;;;;;;19.30;16.45;;;;;;;-142.70;100.00;60390.16;4904806;29;20039;-78
2023/03/17 03:38:10;;;;;;;18.48;15.85;;;;;;;-142.70;100.00;60390.16;4906239;29;20059;-78
2023/03/17 03:40:36;;;;;;;15.02;13.52;;;;;;;-142.70;100.00;60390.16;4889009;29;20098;-79
2023/03/17 03:43:01;;;;;;;14.15;12.40;;;;;;;-142.70;100.00;60390.16;4905983;29;20095;-78
2023/03/17 03:45:27;;;;;;;14.80;13.20;;;;;;;-142.70;100.00;60390.16;4922626;29;20031;-78
2023/03/17 03:47:52;;;;;;;19.27;15.27;;;;;;;-142.70;100.00;60390.16;4906252;29;20028;-78
2023/03/17 03:50:18;;;;;;;17.20;15.27;;;;;;;-142.70;100.00;60390.16;4922413;29;20090;-78
2023/03/17 03:52:43;;;;;;;18.65;15.23;;;;;;;-142.70;100.00;60390.16;4906106;29;20036;-78
2023/03/17 03:55:09;;;;;;;16.80;13.80;;;;;;;-142.70;100.00;60390.16;4890747;29;20494;-79
2023/03/17 03:57:34;;;;;;;16.08;14.18;;;;;;;-142.70;100.00;60390.16;4905428;29;20560;-79
2023/03/17 04:00:00;;;;;;;17.80;14.65;;;;;;;-142.70;100.00;60390.16;4890363;29;20039;-79
2023/03/17 04:02:26;;;;;;;13.25;11.80;;;;;;;-142.70;100.00;60390.16;4886304;29;20094;-78
2023/03/17 04:04:52;;;;;;;13.43;12.07;;;;;;;-142.70;100.00;60390.16;4915526;29;20022;-79
2023/03/17 04:07:20;;;;;;;14.65;13.05;;;;;;;-142.70;100.00;60390.16;4922333;29;20038;-78
2023/03/17 04:09:46;;;;;;;31.65;23.48;;;;;;;-142.70;100.00;60390.16;4906887;29;20091;-78
2023/03/17 04:12:11;;;;;;;47.00;26.83;;;;;;;-142.70;100.00;60390.16;4890147;29;20590;-78
2023/03/17 04:14:37;;;;;;;37.15;24.55;;;;;;;-142.70;100.00;60390.16;4906031;29;20031;-78
2023/03/17 04:17:04;;;;;;;24.20;19.23;;;;;;;-142.70;100.00;60390.16;4906801;29;20036;-78
2023/03/17 04:19:29;;;;;;;30.83;21.67;;;;;;;-142.70;100.00;60390.16;4909360;29;20062;-78
2023/03/17 04:21:55;;;;;;;21.73;16.80;;;;;;;-142.70;100.00;60390.16;4906349;29;20124;-79
2023/03/17 04:24:20;;;;;;;25.05;18.83;;;;;;;-142.70;100.00;60390.16;4904913;29;20024;-78
2023/03/17 04:26:46;;;;;;;23.05;18.60;;;;;;;-142.70;100.00;60390.16;4890844;29;20027;-79
2023/03/17 04:29:14;;;;;;;28.55;18.95;;;;;;;-142.70;100.00;60390.16;4904954;29;20024;-79
2023/03/17 04:31:41;;;;;;;18.98;16.95;;;;;;;-142.70;100.00;60390.16;4907276;29;20038;-79
2023/03/17 04:34:08;;;;;;;25.38;18.98;;;;;;;-142.70;100.00;60390.16;4906079;29;20027;-79
2023/03/17 04:36:33;;;;;;;20.48;17.30;;;;;;;-142.70;100.00;60390.16;4906421;29;20023;-79
2023/03/17 04:38:59;;;;;;;23.95;18.23;;;;;;;-142.70;100.00;60390.16;4906487;29;20058;-78
2023/03/17 04:41:24;;;;;;;19.77;17.23;;;;;;;-142.70;100.00;60390.16;4904750;29;20034;-79
2023/03/17 04:43:50;;;;;;;20.70;17.27;;;;;;;-142.70;100.00;60390.16;4923306;29;20641;-79
2023/03/17 04:46:15;;;;;;;19.70;17.48;;;;;;;-142.70;100.00;60390.16;4892889;29;20027;-79
2023/03/17 04:48:41;;;;;;;27.67;20.52;;;;;;;-142.70;100.00;60390.16;4910379;29;20028;-79
2023/03/17 04:51:06;;;;;;;25.08;18.35;;;;;;;-142.70;100.00;60390.16;4925145;29;20147;-79
2023/03/17 04:53:31;;;;;;;19.70;16.67;;;;;;;-142.70;100.00;60390.16;4910203;29;20120;-79
2023/03/17 04:55:57;;;;;;;21.02;18.08;;;;;;;-142.70;100.00;60390.16;4909513;29;20027;-79
2023/03/17 04:58:23;;;;;;;21.48;19.10;;;;;;;-142.70;100.00;60390.16;4909062;29;20059;-79
2023/03/17 05:00:50;;;;;;;21.10;16.95;;;;;;;-142.70;100.00;60390.16;4927395;29;20546;-79
2023/03/17 05:03:16;;;;;;;18.55;16.58;;;;;;;-142.70;100.00;60390.16;4892417;29;20027;-78
2023/03/17 05:05:41;;;;;;;20.45;17.70;;;;;;;-142.70;100.00;60390.16;4909996;29;20331;-78
2023/03/17 05:08:07;;;;;;;18.05;16.17;;;;;;;-142.70;100.00;60390.16;4908049;29;20034;-79
2023/03/17 05:10:32;;;;;;;20.88;17.45;;;;;;;-142.70;100.00;60390.16;4893711;29;20027;-79
2023/03/17 05:12:57;;;;;;;17.75;15.85;;;;;;;-142.70;100.00;60390.16;4924705;29;20042;-79
2023/03/17 05:15:23;;;;;;;18.70;16.40;;;;;;;-142.70;100.00;60390.16;4908881;29;20038;-79
2023/03/17 05:17:48;;;;;;;16.67;14.80;;;;;;;-142.70;100.00;60390.16;4909158;29;20032;-78
2023/03/17 05:20:14;;;;;;;16.23;14.38;;;;;;;-142.70;100.00;60390.16;4908591;29;20088;-78
2023/03/17 05:22:40;;;;;;;16.30;14.25;;;;;;;-142.70;100.00;60390.16;4894492;29;20681;-78
2023/03/17 05:25:06;;;;;;;29.77;20.40;;;;;;;-142.70;100.00;60390.16;4908021;29;20040;-78
2023/03/17 05:27:32;;;;;;;16.88;14.15;;;;;;;-142.70;100.00;60390.16;4926336;29;20517;-78
2023/03/17 05:29:57;;;;;;;24.42;18.02;;;;;;;-142.70;100.00;60390.16;4907912;29;20031;-79
2023/03/17 05:32:23;;;;;;;16.58;14.45;;;;;;;-142.70;100.00;60390.16;4909608;29;20099;-79
2023/03/17 05:34:49;;;;;;;14.63;13.13;;;;;;;-142.70;100.00;60390.16;4908389;29;20110;-79
2023/03/17 05:37:14;;;;;;;13.85;12.45;;;;;;;-142.70;100.00;60390.16;4926769;29;20024;-79
2023/03/17 05:39:40;;;;;;;16.13;14.30;;;;;;;-142.70;100.00;60390.16;4908728;29;20024;-79
2023/03/17 05:42:07;;;;;;;22.20;17.02;;;;;;;-142.70;100.00;60390.16;4908640;29;20548;-79
2023/03/17 05:44:33;;;;;;;26.40;20.20;;;;;;;-142.70;100.00;60390.16;4909630;29;20034;-79
2023/03/17 05:46:58;;;;;;;25.40;19.55;;;;;;;-142.70;100.00;60390.16;4908313;29;20481;-79
2023/03/17 05:49:25;;;;;;;34.85;24.75;;;;;;;-142.70;100.00;60390.16;4910198;29;20028;-79
2023/03/17 05:51:51;;;;;;;31.95;23.13;;;;;;;-142.70;100.00;60390.16;4908474;29;20044;-79
2023/03/17 05:54:16;;;;;;;32.33;23.65;;;;;;;-142.70;100.00;60390.16;4926383;29;20056;-79
2023/03/17 05:56:42;;;;;;;35.10;25.17;;;;;;;-142.70;100.00;60390.16;4907372;29;20039;-78
2023/03/17 05:59:08;;;;;;;29.27;22.02;;;;;;;-142.70;100.00;60390.16;4908844;29;20027;-78
2023/03/17 06:01:34;;;;;;;24.98;19.08;;;;;;;-142.70;100.00;60390.16;4924486;29;20039;-78
2023/03/17 06:04:00;;;;;;;22.42;16.58;;;;;;;-142.70;100.00;60390.16;4892083;29;20566;-79
2023/03/17 06:06:26;;;;;;;23.75;17.80;;;;;;;-142.70;100.00;60390.16;4892479;29;20030;-78
2023/03/17 06:08:53;;;;;;;15.60;13.80;;;;;;;-142.70;100.00;60390.16;4907304;29;20020;-79
2023/03/17 06:11:20;;;;;;;16.98;15.27;;;;;;;-142.70;100.00;60390.16;4908488;29;20103;-79
2023/03/17 06:13:46;;;;;;;17.67;14.35;;;;;;;-142.70;100.00;60390.16;4924736;29;20505;-79
2023/03/17 06:16:11;;;;;;;16.65;14.30;;;;;;;-142.70;100.00;60390.16;4893997;29;20043;-79
2023/03/17 06:18:37;;;;;;;18.65;16.10;;;;;;;-142.70;100.00;60390.16;4892579;29;20417;-79
2023/03/17 06:21:02;;;;;;;18.50;16.33;;;;;;;-142.70;100.00;60390.16;4893424;29;20031;-79
2023/03/17 06:23:28;;;;;;;20.60;17.67;;;;;;;-142.70;100.00;60390.16;4907975;29;20034;-79
2023/03/17 06:25:53;;;;;;;20.75;18.48;;;;;;;-142.70;100.00;60390.16;4908723;29;20129;-79
2023/03/17 06:28:19;;;;;;;26.40;20.27;;;;;;;-142.70;100.00;60390.16;4909273;29;20023;-79
2023/03/17 06:30:44;;;;;;;22.52;19.27;;;;;;;-142.70;100.00;60390.16;4908894;29;20028;-79
2023/03/17 06:33:10;;;;;;;19.08;16.98;;;;;;;-142.70;100.00;60390.16;4926403;29;20078;-79
2023/03/17 06:35:36;;;;;;;22.85;20.30;;;;;;;-142.70;100.00;60390.16;4907997;29;20401;-79
2023/03/17 06:38:02;;;;;;;23.13;20.73;;;;;;;-142.70;100.00;60390.16;4907804;29;20055;-78
2023/03/17 06:40:28;;;;;;;20.73;18.58;;;;;;;-142.70;100.00;60390.16;4906768;29;20924;-78
2023/03/17 06:42:53;;;;;;;136.02;70.97;;;;;;;-142.70;100.00;60390.16;4925749;29;20083;-78
2023/03/17 06:45:19;;;;;;;20.15;16.52;;;;;;;-142.70;100.00;60390.16;4907572;29;20549;-79
2023/03/17 06:47:45;;;;;;;20.30;17.27;;;;;;;-142.70;100.00;60390.16;4910241;29;20062;-80
2023/03/17 06:50:11;;;;;;;23.50;20.10;;;;;;;-142.70;100.00;60390.16;4893111;29;20130;-79
2023/03/17 06:52:37;;;;;;;18.30;16.42;;;;;;;-142.70;100.00;60390.16;4926449;29;20032;-79
2023/03/17 06:55:04;;;;;;;19.25;17.25;;;;;;;-142.70;100.00;60390.16;4910662;29;20051;-79
2023/03/17 06:57:29;;;;;;;19.13;17.23;;;;;;;-142.70;100.00;60390.16;4922164;29;20024;-79
2023/03/17 06:59:55;;;;;;;16.33;14.50;;;;;;;-142.70;100.00;60390.16;4896466;29;20150;-80
2023/03/17 07:02:20;;;;;;;17.30;15.60;;;;;;;-142.70;100.00;60390.16;4932118;29;20056;-81
2023/03/17 07:04:45;;;;;;;16.52;14.73;;;;;;;-142.70;100.00;60390.16;4920824;29;20036;-81
2023/03/17 07:07:11;;;;;;;22.30;17.70;;;;;;;-142.70;100.00;60390.16;4919050;29;20040;-82
2023/03/17 07:09:36;;;;;;;15.10;13.65;;;;;;;-142.70;100.00;60390.16;4909093;29;20080;-82
2023/03/17 07:12:03;;;;;;;14.93;13.57;;;;;;;-142.70;100.00;60390.16;4936915;29;20067;-82
2023/03/17 07:14:32;;;;;;;15.02;13.50;;;;;;;-142.70;100.00;60390.16;4935884;29;20035;-82
2023/03/17 07:16:58;;;;;;;14.33;12.97;;;;;;;-142.70;100.00;60390.16;4936636;29;20024;-82
2023/03/17 07:19:25;;;;;;;13.48;12.27;;;;;;;-142.70;100.00;60390.16;4936615;29;20467;-82
2023/03/17 07:21:50;;;;;;;11.77;10.73;;;;;;;-142.70;100.00;60390.16;4951665;28;20029;-83
2023/03/17 07:24:16;;;;;;;14.30;12.50;;;;;;;-142.70;100.00;60390.16;4953111;29;20032;-83
2023/03/17 07:26:42;;;;;;;15.93;14.32;;;;;;;-142.70;100.00;60390.16;4938429;29;20084;-83
2023/03/17 07:29:08;;;;;;;11.65;10.75;;;;;;;-142.70;100.00;60390.16;4937841;29;20024;-84
2023/03/17 07:31:37;;;;;;;11.60;10.60;;;;;;;-142.70;100.00;60390.16;4939009;29;20041;-84
2023/03/17 07:34:03;;;;;;;11.10;10.10;;;;;;;-142.70;100.00;60390.16;4938547;29;20044;-83
2023/03/17 07:36:29;;;;;;;11.38;10.48;;;;;;;-142.70;100.00;60390.16;4941429;29;20042;-83
2023/03/17 07:38:54;;;;;;;11.68;10.68;;;;;;;-142.70;100.00;60390.16;4940539;29;20028;-83
2023/03/17 07:41:20;;;;;;;10.38;9.48;;;;;;;-142.70;100.00;60390.16;4940389;29;20032;-82
2023/03/17 07:43:46;;;;;;;10.70;9.80;;;;;;;-142.70;100.00;60390.16;4927575;29;20032;-82
2023/03/17 07:46:12;;;;;;;9.25;8.55;;;;;;;-142.70;100.00;60390.16;4936097;29;20083;-83
2023/03/17 07:48:40;;;;;;;8.60;7.80;;;;;;;-142.70;100.00;60390.16;4939380;29;20027;-82
2023/03/17 07:51:09;;;;;;;8.90;8.20;;;;;;;-142.70;100.00;60390.16;4955692;29;20036;-82
2023/03/17 07:53:35;;;;;;;10.20;9.32;;;;;;;-142.70;100.00;60390.16;4938239;29;20091;-82
2023/03/17 07:56:00;;;;;;;9.32;8.48;;;;;;;-142.70;100.00;60390.16;4939475;29;20024;-83
2023/03/17 07:58:26;;;;;;;8.70;8.00;;;;;;;-142.70;100.00;60390.16;4922856;29;20051;-82
2023/03/17 08:00:52;;;;;;;7.40;6.72;;;;;;;-142.70;100.00;60390.16;4921902;29;20027;-81
2023/03/17 08:03:18;;;;;;;7.30;5.60;;;;;;;-142.70;100.00;60390.16;4936351;29;20031;-81
2023/03/17 08:05:43;;;;;;;6.70;6.10;;;;;;;-142.70;100.00;60390.16;4908702;29;20032;-80
2023/03/17 08:08:09;;;;;;;7.53;6.93;;;;;;;-142.70;100.00;60390.16;4906392;29;20027;-80
2023/03/17 08:10:34;;;;;;;8.10;7.40;;;;;;;-142.70;100.00;60390.16;4910231;29;20545;-79
2023/03/17 08:13:00;;;;;;;8.68;8.02;;;;;;;-142.70;100.00;60390.16;4907506;29;20482;-79
2023/03/17 08:15:26;;;;;;;8.60;7.80;;;;;;;-142.70;100.00;60390.16;4914763;29;20028;-80
2023/03/17 08:17:52;;;;;;;6.82;6.22;;;;;;;-142.70;100.00;60390.16;4919015;29;20055;-80
2023/03/17 08:20:18;;;;;;;6.82;6.32;;;;;;;-142.70;100.00;60390.16;4906350;29;20091;-80
2023/03/17 08:22:43;;;;;;;7.53;6.93;;;;;;;-142.70;100.00;60390.16;4920220;29;20063;-80
2023/03/17 08:25:10;;;;;;;8.80;8.10;;;;;;;-142.70;100.00;60390.16;4915616;29;20034;-79
2023/03/17 08:27:35;;;;;;;7.95;7.25;;;;;;;-142.70;100.00;60390.16;4897124;29;20039;-79
2023/03/17 08:30:03;;;;;;;9.07;8.35;;;;;;;-142.70;100.00;60390.16;4912104;29;20031;-79
2023/03/17 08:32:28;;;;;;;13.20;8.57;;;;;;;-142.70;100.00;60390.16;4930955;29;20454;-79
2023/03/17 08:34:53;;;;;;;9.68;8.88;;;;;;;-142.70;100.00;60390.16;4899282;29;20040;-80
2023/03/17 08:37:21;;;;;;;10.13;9.15;;;;;;;-142.70;100.00;60390.16;4901529;29;20400;-79
2023/03/17 08:39:46;;;;;;;8.90;8.10;;;;;;;-142.70;100.00;60390.16;4917423;29;20536;-80
2023/03/17 08:42:12;;;;;;;9.85;8.95;;;;;;;-142.70;100.00;60390.16;4932624;29;20036;-79
2023/03/17 08:44:37;;;;;;;9.27;8.32;;;;;;;-142.70;100.00;60390.16;4935779;29;20078;-80
2023/03/17 08:47:03;;;;;;;8.05;7.35;;;;;;;-142.70;100.00;60390.16;4915060;29;20084;-80
2023/03/17 08:49:33;;;;;;;7.88;7.28;;;;;;;-142.70;100.00;60390.16;4896637;29;20028;-78
2023/03/17 08:51:58;;;;;;;8.88;8.00;;;;;;;-142.70;100.00;60390.16;4929334;29;20062;-79
2023/03/17 08:54:24;;;;;;;8.93;8.07;;;;;;;-142.70;100.00;60390.16;4929176;29;20398;-79
2023/03/17 08:56:49;;;;;;;8.70;7.90;;;;;;;-142.70;100.00;60390.16;4904473;29;20146;-79
2023/03/17 08:59:15;;;;;;;9.43;8.52;;;;;;;-142.70;100.00;60390.16;4915043;29;20039;-79
2023/03/17 09:01:42;;;;;;;7.72;7.13;;;;;;;-142.70;100.00;60390.16;4913287;29;20051;-80
2023/03/17 09:04:08;;;;;;;7.95;7.20;;;;;;;-142.70;100.00;60390.16;4912127;29;20046;-79
2023/03/17 09:06:34;;;;;;;9.30;8.60;;;;;;;-142.70;100.00;60390.16;4915099;29;20134;-79
2023/03/17 09:09:00;;;;;;;10.23;9.40;;;;;;;-142.70;100.00;60390.16;4915602;29;20099;-79
2023/03/17 09:11:27;;;;;;;9.32;8.52;;;;;;;-142.70;100.00;60390.16;4912963;29;20027;-79
2023/03/17 09:13:54;;;;;;;9.63;8.77;;;;;;;-142.70;100.00;60390.16;4896096;29;20035;-79
2023/03/17 09:16:20;;;;;;;7.90;7.07;;;;;;;-142.70;100.00;60390.16;4902707;29;20456;-79
2023/03/17 09:18:47;;;;;;;9.63;8.73;;;;;;;-142.70;100.00;60390.16;4896612;29;20131;-79
2023/03/17 09:21:14;;;;;;;10.07;9.27;;;;;;;-142.70;100.00;60390.16;4910107;29;20103;-79
2023/03/17 09:23:40;;;;;;;10.93;9.55;;;;;;;-142.70;100.00;60390.16;4910828;29;20528;-79
2023/03/17 09:26:06;;;;;;;8.43;7.75;;;;;;;-142.70;100.00;60390.16;4917023;29;20057;-79
2023/03/17 09:28:32;;;;;;;8.57;7.75;;;;;;;-142.70;100.00;60390.16;4912949;29;20453;-79
2023/03/17 09:31:00;;;;;;;10.05;9.15;;;;;;;-142.70;100.00;60390.16;4911503;29;20046;-79
2023/03/17 09:33:25;;;;;;;7.82;6.93;;;;;;;-142.70;100.00;60390.16;4897012;29;20040;-79
2023/03/17 09:35:53;;;;;;;6.70;6.18;;;;;;;-142.70;100.00;60390.16;4904560;29;20051;-78
2023/03/17 09:38:18;;;;;;;8.63;7.93;;;;;;;-142.70;100.00;60390.16;4895782;29;20023;-79
2023/03/17 09:40:50;;;;;;;8.20;7.43;;;;;;;-142.70;100.00;60390.16;4912258;29;20082;-79
2023/03/17 09:43:41;;;;;;;8.68;7.82;;;;;;;-142.70;100.00;60390.16;4929297;29;20043;-78
2023/03/17 09:46:28;;;;;;;9.15;7.00;;;;;;;-142.70;100.00;60390.16;4910403;29;20421;-79
2023/03/17 09:49:19;;;;;;;7.10;6.50;;;;;;;-142.70;100.00;60390.16;4915912;29;20031;-79
2023/03/17 09:51:45;;;;;;;7.25;6.65;;;;;;;-142.70;100.00;60390.16;4912687;29;20160;-78
2023/03/17 09:54:32;;;;;;;7.90;7.20;;;;;;;-142.70;100.00;60390.16;4911007;29;20027;-78
2023/03/17 09:57:17;;;;;;;7.53;6.93;;;;;;;-142.70;100.00;60390.16;4912184;29;20106;-78
2023/03/17 09:59:46;;;;;;;8.40;7.70;;;;;;;-142.70;100.00;60390.16;4892662;29;20251;-79
2023/03/17 10:02:23;;;;;;;6.63;6.03;;;;;;;-142.70;100.00;60390.16;4886525;29;20044;-78
2023/03/17 10:04:49;;;;;;;6.65;6.05;;;;;;;-142.70;100.00;60390.16;4895394;29;20497;-78
2023/03/17 10:07:19;;;;;;;7.10;6.50;;;;;;;-142.70;100.00;60390.16;4888157;29;20039;-79
2023/03/17 10:09:55;;;;;;;8.10;7.30;;;;;;;-142.70;100.00;60390.16;4898912;29;20051;-78
2023/03/17 10:13:04;;;;;;;6.95;6.30;;;;;;;-142.70;100.00;60390.16;4906617;29;20035;-78
2023/03/17 10:15:39;;;;;;;6.80;6.20;;;;;;;-142.70;100.00;60390.16;4917670;29;20079;-77
2023/03/17 10:18:11;;;;;;;7.10;6.50;;;;;;;-142.70;100.00;60390.16;4911635;29;20074;-77
2023/03/17 10:21:01;;;;;;;6.95;6.40;;;;;;;-142.70;100.00;60390.16;4895306;29;20708;-77
2023/03/17 10:23:30;;;;;;;6.70;5.80;;;;;;;-142.70;100.00;60390.16;4915205;29;20485;-77
2023/03/17 10:26:01;;;;;;;5.03;4.63;;;;;;;-142.70;100.00;60390.16;4894433;29;20055;-77
2023/03/17 10:28:29;;;;;;;6.20;5.60;;;;;;;-142.70;100.00;60390.16;4897871;29;20044;-77
2023/03/17 10:31:10;;;;;;;6.00;5.53;;;;;;;-142.70;100.00;60390.16;4888412;29;20118;-77
2023/03/17 10:33:36;;;;;;;6.10;5.15;;;;;;;-142.70;100.00;60390.16;4896736;29;20139;-77
2023/03/17 10:36:08;;;;;;;6.20;5.70;;;;;;;-142.70;100.00;60390.16;4904596;29;20028;-77
2023/03/17 10:38:34;;;;;;;6.30;5.70;;;;;;;-142.70;100.00;60390.16;4910304;29;20464;-77
2023/03/17 10:41:05;;;;;;;6.13;5.53;;;;;;;-142.70;100.00;60390.16;4904343;29;20041;-77
2023/03/17 10:43:40;;;;;;;6.00;5.50;;;;;;;-142.70;100.00;60390.16;4907542;29;20845;-77
2023/03/17 10:46:18;;;;;;;6.00;5.50;;;;;;;-142.70;100.00;60390.16;4902232;29;20082;-77
2023/03/17 10:48:49;;;;;;;5.72;5.20;;;;;;;-142.70;100.00;60390.16;4939492;29;20023;-78
2023/03/17 10:51:21;;;;;;;5.82;5.32;;;;;;;-142.70;100.00;60390.16;4901513;29;20161;-78
2023/03/17 10:53:51;;;;;;;6.65;6.15;;;;;;;-142.70;100.00;60390.16;4905894;29;20047;-77
2023/03/17 10:56:23;;;;;;;5.82;5.40;;;;;;;-142.70;100.00;60390.16;4924487;29;20028;-77
2023/03/17 10:58:50;;;;;;;6.75;6.15;;;;;;;-142.70;100.00;60390.16;4924755;29;20028;-77
2023/03/17 11:01:21;;;;;;;6.32;5.43;;;;;;;-142.70;100.00;60390.16;4888269;29;20040;-77